Time;durP1;ratioP1;P1;durP2;ratioP2;P2;SDS_P1;SDS_P2;PMS_P1;PMS_P2;Temp;Humidity;BMP_temperature;BMP_pressure;BME280_temperature;BME280_humidity;BME280_pressure;Samples;Min_cycle;Max_cycle;Signal;HPM_P1;HPM_P2
2021/10/12 00:00:52;;;;;;;51.80;32.60;;;;;;;4.40;76.94;100427.95;95326;1186;102418;-70
2021/10/12 00:02:59;;;;;;;50.40;32.70;;;;;;;4.45;77.12;100420.81;95301;1186;110635;-70
2021/10/12 00:05:08;;;;;;;49.70;32.00;;;;;;;4.51;77.23;100424.35;95305;1188;92745;-63
2021/10/12 00:07:16;;;;;;;53.50;33.00;;;;;;;4.54;77.17;100423.53;95317;1189;95417;-62
2021/10/12 00:09:23;;;;;;;51.30;32.00;;;;;;;4.55;77.21;100422.66;95284;1188;115945;-62
2021/10/12 00:11:34;;;;;;;49.40;32.80;;;;;;;4.60;77.33;100422.08;95330;1189;103145;-62
2021/10/12 00:13:44;;;;;;;51.40;33.60;;;;;;;4.67;77.37;100419.17;95308;1187;110449;-62
2021/10/12 00:15:54;;;;;;;54.20;34.70;;;;;;;4.73;77.47;100418.41;95312;1186;91563;-63
2021/10/12 00:18:02;;;;;;;49.30;33.10;;;;;;;4.80;77.63;100414.33;94890;1190;94381;-63
2021/10/12 00:20:11;;;;;;;49.70;33.80;;;;;;;4.86;77.61;100408.73;95310;1189;116315;-63
2021/10/12 00:22:19;;;;;;;52.10;33.50;;;;;;;4.89;77.57;100404.62;95335;1184;102620;-63
2021/10/12 00:24:26;;;;;;;49.80;33.50;;;;;;;4.89;77.52;100403.37;95299;1184;110628;-71
2021/10/12 00:26:33;;;;;;;50.20;33.70;;;;;;;4.91;77.51;100396.14;95283;1185;93587;-71
2021/10/12 00:28:40;;;;;;;45.10;30.90;;;;;;;4.88;77.50;100393.90;95333;1187;94217;-71
2021/10/12 00:30:48;;;;;;;47.90;31.50;;;;;;;4.87;77.50;100397.05;95305;1180;115577;-63
2021/10/12 00:32:55;;;;;;;48.20;32.10;;;;;;;4.85;77.60;100392.23;95298;1191;102220;-62
2021/10/12 00:35:03;;;;;;;49.80;32.30;;;;;;;4.86;77.64;100393.41;95181;1190;110262;-71
2021/10/12 00:37:12;;;;;;;49.10;34.40;;;;;;;4.86;77.64;100389.09;95298;1185;92873;-71
2021/10/12 00:39:20;;;;;;;47.80;32.70;;;;;;;4.82;77.53;100386.98;95338;1185;94819;-71
2021/10/12 00:41:27;;;;;;;51.90;32.90;;;;;;;4.78;77.49;100383.27;95308;1193;115867;-71
2021/10/12 00:43:36;;;;;;;50.90;33.20;;;;;;;4.76;77.66;100383.25;95334;1188;101826;-71
2021/10/12 00:45:44;;;;;;;53.40;33.30;;;;;;;4.76;77.70;100383.81;95295;1185;111137;-71
2021/10/12 00:48:03;;;;;;;50.10;33.30;;;;;;;4.79;77.92;100382.30;95284;1187;93123;-71
2021/10/12 00:50:11;;;;;;;48.80;33.80;;;;;;;4.83;78.04;100378.70;95305;1187;94976;-71
2021/10/12 00:52:18;;;;;;;49.60;32.90;;;;;;;4.87;78.13;100376.55;95304;1188;114973;-71
2021/10/12 00:54:25;;;;;;;50.00;31.90;;;;;;;4.87;78.15;100376.49;95307;1184;102228;-63
2021/10/12 00:56:33;;;;;;;48.30;32.20;;;;;;;4.86;78.06;100373.23;95289;1185;110974;-63
2021/10/12 00:58:42;;;;;;;48.50;31.60;;;;;;;4.83;78.11;100370.13;95315;1190;92910;-63
2021/10/12 01:00:52;;;;;;;47.90;33.10;;;;;;;4.83;78.18;100368.66;95320;1182;94126;-62
2021/10/12 01:02:59;;;;;;;48.50;32.00;;;;;;;4.82;78.12;100363.98;95324;1181;113866;-62
2021/10/12 01:05:08;;;;;;;47.10;32.90;;;;;;;4.82;78.22;100356.90;95318;1188;102801;-71
2021/10/12 01:07:18;;;;;;;52.20;33.10;;;;;;;4.86;78.51;100362.16;95309;1187;111234;-71
2021/10/12 01:09:28;;;;;;;46.20;32.40;;;;;;;4.90;78.68;100355.70;95298;1185;92874;-71
2021/10/12 01:11:37;;;;;;;48.00;32.70;;;;;;;4.93;78.77;100357.82;95328;1185;94757;-72
2021/10/12 01:13:45;;;;;;;51.80;35.10;;;;;;;4.96;78.85;100353.82;95306;1182;115296;-72
2021/10/12 01:15:53;;;;;;;52.00;34.90;;;;;;;4.97;78.92;100349.20;95323;1188;101945;-72
2021/10/12 01:18:01;;;;;;;49.60;33.90;;;;;;;5.01;79.08;100351.71;95278;1185;110648;-72
2021/10/12 01:20:13;;;;;;;49.20;33.70;;;;;;;5.02;79.02;100346.92;95265;1181;94317;-63
2021/10/12 01:22:20;;;;;;;47.80;31.90;;;;;;;5.07;79.09;100345.40;95339;1185;94422;-63
2021/10/12 01:24:27;;;;;;;46.10;32.50;;;;;;;5.09;79.13;100344.45;95283;1190;115095;-63
2021/10/12 01:26:35;;;;;;;49.50;33.30;;;;;;;5.13;79.18;100344.79;95318;1182;102243;-63
2021/10/12 01:28:43;;;;;;;49.50;33.00;;;;;;;5.15;79.27;100346.88;95283;1187;110515;-62
2021/10/12 01:30:51;;;;;;;52.00;35.50;;;;;;;5.15;79.31;100339.18;95281;1185;94674;-63
2021/10/12 01:32:58;;;;;;;49.90;33.30;;;;;;;5.19;79.39;100337.33;95316;1186;95862;-63
2021/10/12 01:35:23;;;;;;;48.90;32.10;;;;;;;5.20;79.30;100334.94;95110;1193;114832;-62
2021/10/12 01:37:32;;;;;;;46.90;31.90;;;;;;;5.19;79.35;100335.36;95308;1182;102719;-62
2021/10/12 01:39:39;;;;;;;44.00;31.50;;;;;;;5.19;79.45;100332.65;95302;1193;110326;-70
2021/10/12 01:41:47;;;;;;;50.70;33.80;;;;;;;5.19;79.41;100333.52;95297;1192;93356;-71
2021/10/12 01:43:58;;;;;;;49.60;32.80;;;;;;;5.20;79.56;100332.72;95330;1182;94890;-71
2021/10/12 01:46:07;;;;;;;48.70;32.70;;;;;;;5.21;79.60;100326.73;95332;1185;115400;-71
2021/10/12 01:48:14;;;;;;;48.70;32.90;;;;;;;5.20;79.57;100324.75;95342;1187;102168;-71
2021/10/12 01:50:22;;;;;;;52.10;31.20;;;;;;;5.20;79.61;100324.70;95310;1180;111178;-63
2021/10/12 01:52:29;;;;;;;50.60;33.50;;;;;;;5.22;79.72;100320.98;95312;1188;92397;-63
2021/10/12 01:54:36;;;;;;;46.90;32.50;;;;;;;5.28;79.91;100322.48;95347;1185;93169;-71
2021/10/12 01:56:44;;;;;;;49.60;32.10;;;;;;;5.34;79.95;100315.55;95319;1188;115759;-71
2021/10/12 01:58:51;;;;;;;46.60;32.10;;;;;;;5.41;80.06;100313.61;95304;1187;101993;-71
2021/10/12 02:00:59;;;;;;;52.00;34.50;;;;;;;5.47;80.02;100311.73;95301;1185;110363;-71
2021/10/12 02:03:07;;;;;;;50.70;32.80;;;;;;;5.52;80.08;100309.63;95306;1188;94001;-71
2021/10/12 02:05:14;;;;;;;50.40;32.60;;;;;;;5.59;80.17;100306.95;95343;1182;95650;-71
2021/10/12 02:07:21;;;;;;;47.10;32.20;;;;;;;5.66;80.23;100307.13;95311;1181;115782;-71
2021/10/12 02:09:32;;;;;;;48.80;32.20;;;;;;;5.74;80.22;100306.75;95336;1184;102267;-71
2021/10/12 02:11:39;;;;;;;47.10;32.00;;;;;;;5.81;80.22;100307.23;95284;1189;111218;-72
2021/10/12 02:13:46;;;;;;;45.90;31.20;;;;;;;5.88;80.34;100301.05;95307;1182;94390;-72
2021/10/12 02:15:53;;;;;;;46.40;31.60;;;;;;;5.95;80.32;100299.54;95346;1185;94543;-63
2021/10/12 02:18:01;;;;;;;50.00;33.20;;;;;;;6.02;80.36;100295.94;95313;1182;115962;-63
2021/10/12 02:20:12;;;;;;;49.70;33.50;;;;;;;6.10;80.42;100294.36;95312;1188;101983;-63
2021/10/12 02:22:19;;;;;;;51.10;32.90;;;;;;;6.17;80.40;100293.94;95269;1189;110353;-63
2021/10/12 02:24:26;;;;;;;48.30;32.00;;;;;;;6.25;80.42;100290.24;93014;1182;3080823;-72
2021/10/12 02:26:34;;;;;;;52.70;33.30;;;;;;;6.27;80.43;100287.18;95437;1187;83064;-72
2021/10/12 02:28:41;;;;;;;51.90;33.40;;;;;;;6.31;80.51;100287.91;95416;1188;103836;-73
2021/10/12 02:30:48;;;;;;;51.20;34.30;;;;;;;6.34;80.58;100286.20;92962;1189;3012669;-63
2021/10/12 02:32:55;;;;;;;58.70;33.80;;;;;;;6.36;80.49;100287.95;95285;1184;110265;-63
2021/10/12 02:35:07;;;;;;;54.40;35.30;;;;;;;6.40;80.51;100284.98;92791;1189;3012340;-73
2021/10/12 02:37:14;;;;;;;57.70;34.90;;;;;;;6.45;80.54;100285.69;95449;1184;84502;-72
2021/10/12 02:39:22;;;;;;;55.60;34.80;;;;;;;6.50;80.56;100280.52;95412;1191;104672;-63
2021/10/12 02:41:29;;;;;;;54.30;33.30;;;;;;;6.55;80.53;100281.63;95457;1185;90137;-63
2021/10/12 02:43:36;;;;;;;56.40;34.40;;;;;;;6.58;80.48;100284.52;95411;1188;99187;-63
2021/10/12 02:45:46;;;;;;;58.70;34.00;;;;;;;6.59;80.39;100279.36;95455;1184;80507;-72
2021/10/12 02:47:53;;;;;;;51.00;32.40;;;;;;;6.60;80.36;100287.67;95375;1188;81883;-72
2021/10/12 02:50:01;;;;;;;57.20;33.50;;;;;;;6.62;80.39;100283.95;92931;1182;3013099;-63
2021/10/12 02:52:11;;;;;;;51.10;32.70;;;;;;;6.64;80.37;100288.09;95420;1185;93064;-63
2021/10/12 02:54:18;;;;;;;51.70;34.20;;;;;;;6.65;80.39;100290.14;95461;1191;98911;-63
2021/10/12 02:56:25;;;;;;;52.60;34.20;;;;;;;6.66;80.43;100284.15;95433;1182;82065;-63
2021/10/12 02:58:36;;;;;;;52.00;32.90;;;;;;;6.64;80.46;100285.33;95426;1190;83184;-63
2021/10/12 03:00:43;;;;;;;51.00;31.40;;;;;;;6.67;80.41;100282.48;92988;1190;3012987;-63
2021/10/12 03:02:51;;;;;;;46.70;31.10;;;;;;;6.68;80.37;100280.70;95432;1185;90101;-63
2021/10/12 03:04:58;;;;;;;48.70;31.60;;;;;;;6.69;80.29;100279.33;95415;1185;99928;-71
2021/10/12 03:07:05;;;;;;;48.40;30.70;;;;;;;6.73;80.32;100279.30;95423;1184;82634;-71
2021/10/12 03:09:12;;;;;;;48.70;30.50;;;;;;;6.76;80.30;100272.14;95458;1186;83249;-63
2021/10/12 03:11:21;;;;;;;52.10;31.80;;;;;;;6.79;80.34;100280.53;95423;1189;103484;-71
2021/10/12 03:13:28;;;;;;;47.70;30.90;;;;;;;6.80;80.42;100281.31;95359;1188;91705;-71
2021/10/12 03:15:36;;;;;;;47.60;32.00;;;;;;;6.82;80.43;100280.44;95383;1188;99558;-72
2021/10/12 03:17:43;;;;;;;51.80;32.00;;;;;;;6.84;80.48;100280.24;95330;1185;82036;-72
2021/10/12 03:19:50;;;;;;;51.00;32.50;;;;;;;6.83;80.49;100278.45;94797;1192;82777;-72
2021/10/12 03:21:59;;;;;;;47.90;30.80;;;;;;;6.88;80.43;100276.30;95305;1185;107764;-63
2021/10/12 03:24:09;;;;;;;54.00;32.50;;;;;;;6.89;80.49;100276.00;95302;1185;91453;-63
2021/10/12 03:26:17;;;;;;;56.00;33.10;;;;;;;6.93;80.46;100274.52;95315;1185;99315;-63
2021/10/12 03:28:24;;;;;;;52.80;32.20;;;;;;;6.98;80.48;100272.51;95276;1185;82891;-63
2021/10/12 03:30:35;;;;;;;49.80;32.10;;;;;;;7.01;80.45;100265.42;95318;1185;83527;-63
2021/10/12 03:32:42;;;;;;;46.70;31.00;;;;;;;7.02;80.38;100265.76;95324;1183;104383;-63
2021/10/12 03:34:49;;;;;;;50.60;31.30;;;;;;;7.01;80.29;100258.70;95329;1189;91015;-63
2021/10/12 03:36:57;;;;;;;50.20;31.70;;;;;;;7.02;80.32;100255.21;95293;1193;99107;-72
2021/10/12 03:39:05;;;;;;;48.30;29.90;;;;;;;7.05;80.26;100253.50;95324;1181;82712;-72
2021/10/12 03:41:15;;;;;;;49.90;31.70;;;;;;;7.05;80.35;100251.55;95315;1184;82943;-64
2021/10/12 03:43:24;;;;;;;48.40;30.60;;;;;;;7.06;80.37;100246.04;95311;1191;104702;-63
2021/10/12 03:45:31;;;;;;;45.30;29.90;;;;;;;7.08;80.43;100251.65;95297;1195;91167;-63
2021/10/12 03:47:38;;;;;;;49.80;30.60;;;;;;;7.13;80.48;100245.90;95295;1190;98100;-72
2021/10/12 03:49:48;;;;;;;45.20;30.70;;;;;;;7.16;80.31;100248.67;95206;1181;93766;-71
2021/10/12 03:51:56;;;;;;;50.70;29.60;;;;;;;7.19;80.36;100249.41;95241;1185;94817;-72
2021/10/12 03:54:03;;;;;;;44.20;30.00;;;;;;;7.23;80.36;100245.23;95210;1187;115464;-73
2021/10/12 03:56:13;;;;;;;45.90;29.60;;;;;;;7.26;80.39;100244.26;95212;1189;101325;-76
2021/10/12 03:58:20;;;;;;;47.90;29.70;;;;;;;7.28;80.32;100240.11;95169;1189;110248;-77
2021/10/12 04:00:31;;;;;;;51.30;31.30;;;;;;;7.29;80.28;100237.33;95174;1181;92812;-76
2021/10/12 04:02:38;;;;;;;48.20;30.20;;;;;;;7.29;80.23;100234.84;95202;1188;93522;-63
2021/10/12 04:04:45;;;;;;;45.00;29.50;;;;;;;7.30;80.26;100235.32;95207;1191;115533;-63
2021/10/12 04:06:52;;;;;;;49.50;32.40;;;;;;;7.30;80.27;100230.98;95243;1193;102319;-63
2021/10/12 04:09:00;;;;;;;45.90;29.10;;;;;;;7.30;80.32;100228.47;92838;1185;3012360;-64
2021/10/12 04:11:07;;;;;;;51.40;32.80;;;;;;;7.32;80.33;100228.92;95317;1186;82197;-63
2021/10/12 04:13:14;;;;;;;49.00;31.10;;;;;;;7.35;80.37;100226.42;94894;1192;83602;-63
2021/10/12 04:15:21;;;;;;;47.30;31.70;;;;;;;7.40;80.37;100225.95;95360;1182;103797;-63
2021/10/12 04:17:28;;;;;;;53.00;31.10;;;;;;;7.43;80.41;100225.52;95398;1185;90185;-63
2021/10/12 04:19:36;;;;;;;50.80;30.70;;;;;;;7.45;80.31;100222.96;95371;1185;99346;-63
2021/10/12 04:21:43;;;;;;;49.10;33.10;;;;;;;7.47;80.37;100223.46;95346;1185;82935;-77
2021/10/12 04:23:50;;;;;;;50.80;31.90;;;;;;;7.50;80.39;100218.61;95380;1185;81921;-75
2021/10/12 04:25:58;;;;;;;47.90;29.30;;;;;;;7.52;80.47;100219.61;95388;1190;104281;-63
2021/10/12 04:28:11;;;;;;;48.20;29.10;;;;;;;7.53;80.47;100219.64;95384;1186;90738;-63
2021/10/12 04:30:18;;;;;;;50.20;31.20;;;;;;;7.55;80.43;100220.03;95347;1182;99504;-63
2021/10/12 04:32:25;;;;;;;46.80;29.50;;;;;;;7.57;80.41;100216.73;95349;1192;82103;-63
2021/10/12 04:34:32;;;;;;;53.60;30.80;;;;;;;7.61;80.42;100214.30;95363;1185;82141;-63
2021/10/12 04:36:39;;;;;;;49.00;29.70;;;;;;;7.61;80.37;100212.36;95372;1186;104856;-76
2021/10/12 04:38:47;;;;;;;47.30;29.90;;;;;;;7.60;80.30;100209.51;95371;1185;90885;-76
2021/10/12 04:40:56;;;;;;;53.90;32.10;;;;;;;7.61;80.44;100205.32;92877;1185;3013102;-63
2021/10/12 04:43:07;;;;;;;51.10;30.30;;;;;;;7.65;80.45;100201.85;95271;1185;93631;-63
2021/10/12 04:45:15;;;;;;;50.40;30.40;;;;;;;7.65;80.54;100198.38;95262;1182;95277;-63
2021/10/12 04:47:22;;;;;;;51.10;30.60;;;;;;;7.67;80.50;100198.21;95244;1185;115931;-76
2021/10/12 04:49:29;;;;;;;48.20;29.50;;;;;;;7.68;80.43;100195.79;95257;1183;102903;-76
2021/10/12 04:51:37;;;;;;;55.00;29.90;;;;;;;7.70;80.38;100197.36;95241;1188;111327;-76
2021/10/12 04:53:45;;;;;;;49.10;29.80;;;;;;;7.72;80.41;100197.88;95225;1185;93209;-76
2021/10/12 04:55:52;;;;;;;51.80;29.60;;;;;;;7.76;80.38;100200.45;95263;1186;94680;-63
2021/10/12 04:57:59;;;;;;;48.30;28.10;;;;;;;7.75;80.41;100196.52;95259;1190;115051;-63
2021/10/12 05:00:10;;;;;;;53.40;29.70;;;;;;;7.76;80.42;100193.05;95292;1190;102331;-63
2021/10/12 05:02:19;;;;;;;45.00;28.30;;;;;;;7.77;80.47;100195.31;95252;1190;112192;-76
2021/10/12 05:04:26;;;;;;;49.00;29.70;;;;;;;7.74;80.50;100191.62;95247;1185;93518;-76
2021/10/12 05:06:37;;;;;;;49.60;28.50;;;;;;;7.75;80.58;100188.45;95248;1185;94680;-64
2021/10/12 05:08:44;;;;;;;45.80;28.10;;;;;;;7.79;80.58;100190.89;95241;1188;115500;-63
2021/10/12 05:10:54;;;;;;;47.80;28.20;;;;;;;7.81;80.62;100188.48;95275;1185;102348;-73
2021/10/12 05:13:02;;;;;;;48.40;28.30;;;;;;;7.83;80.65;100187.29;94905;1188;110434;-76
2021/10/12 05:15:19;;;;;;;45.20;27.30;;;;;;;7.83;80.55;100187.90;95245;1185;94190;-76
2021/10/12 05:17:33;;;;;;;47.70;27.40;;;;;;;7.86;80.56;100187.58;95243;1185;95092;-63
2021/10/12 05:19:41;;;;;;;42.50;27.00;;;;;;;7.86;80.59;100189.91;95233;1181;115907;-63
2021/10/12 05:21:48;;;;;;;50.10;27.80;;;;;;;7.87;80.52;100191.05;95247;1185;102779;-76
2021/10/12 05:23:56;;;;;;;46.30;27.50;;;;;;;7.90;80.59;100188.95;95221;1192;109521;-76
2021/10/12 05:26:05;;;;;;;47.50;28.70;;;;;;;7.88;80.75;100193.48;95250;1192;92561;-76
2021/10/12 05:28:13;;;;;;;44.00;27.00;;;;;;;7.92;80.65;100195.99;95260;1191;94667;-76
2021/10/12 05:30:24;;;;;;;46.90;28.10;;;;;;;7.96;80.68;100199.55;95290;1184;114183;-78
2021/10/12 05:32:30;;;;;;;48.80;28.30;;;;;;;7.99;80.59;100200.05;95268;1185;101861;-64
2021/10/12 05:34:37;;;;;;;49.30;28.50;;;;;;;8.02;80.71;100200.73;95318;1182;110773;-65
2021/10/12 05:36:45;;;;;;;43.10;27.70;;;;;;;8.02;80.72;100200.65;95174;1188;94652;-64
2021/10/12 05:38:52;;;;;;;45.90;26.40;;;;;;;8.02;80.75;100198.74;95263;1185;95132;-64
2021/10/12 05:41:02;;;;;;;45.10;27.30;;;;;;;8.07;80.74;100192.87;95238;1187;114749;-71
2021/10/12 05:43:09;;;;;;;42.20;26.50;;;;;;;8.12;80.71;100191.52;95246;1187;102973;-64
2021/10/12 05:45:16;;;;;;;44.00;26.30;;;;;;;8.12;80.77;100191.89;95210;1185;110441;-64
2021/10/12 05:47:23;;;;;;;38.50;24.80;;;;;;;8.15;80.81;100191.17;95219;1186;93614;-64
2021/10/12 05:49:30;;;;;;;43.30;26.70;;;;;;;8.19;80.81;100189.76;95257;1188;94240;-64
2021/10/12 05:51:38;;;;;;;39.90;25.80;;;;;;;8.20;80.81;100184.40;95248;1186;116061;-65
2021/10/12 05:53:50;;;;;;;39.60;24.90;;;;;;;8.20;80.81;100183.73;95243;1185;102320;-64
2021/10/12 05:56:06;;;;;;;39.90;24.30;;;;;;;8.20;80.81;100182.08;95225;1189;110563;-64
2021/10/12 05:58:14;;;;;;;38.30;25.00;;;;;;;8.24;80.91;100178.75;95222;1185;94513;-64
2021/10/12 06:00:22;;;;;;;40.80;25.40;;;;;;;8.25;80.85;100179.49;95237;1185;94152;-64
2021/10/12 06:02:29;;;;;;;39.30;25.40;;;;;;;8.27;80.86;100181.34;95268;1182;114890;-77
2021/10/12 06:04:39;;;;;;;39.20;25.20;;;;;;;8.30;80.85;100180.59;95225;1182;102379;-77
2021/10/12 06:06:49;;;;;;;36.00;23.90;;;;;;;8.32;80.77;100183.23;95237;1187;109622;-65
2021/10/12 06:08:56;;;;;;;40.60;23.20;;;;;;;8.37;80.74;100184.06;95219;1185;93911;-65
2021/10/12 06:11:09;;;;;;;37.70;24.40;;;;;;;8.40;80.69;100184.41;95244;1182;94637;-76
2021/10/12 06:13:17;;;;;;;37.70;24.00;;;;;;;8.42;80.72;100187.23;95226;1185;114780;-77
2021/10/12 06:15:24;;;;;;;41.60;24.70;;;;;;;8.47;80.71;100188.67;95264;1185;103055;-66
2021/10/12 06:17:34;;;;;;;38.80;24.30;;;;;;;8.50;80.61;100188.61;95239;1185;110214;-65
2021/10/12 06:19:41;;;;;;;38.30;24.40;;;;;;;8.51;80.61;100189.42;95215;1185;93792;-64
2021/10/12 06:21:49;;;;;;;35.60;22.80;;;;;;;8.52;80.63;100190.38;94830;1188;94536;-64
2021/10/12 06:23:56;;;;;;;35.50;22.70;;;;;;;8.58;80.62;100187.16;95215;1191;114726;-64
2021/10/12 06:26:06;;;;;;;35.40;22.90;;;;;;;8.66;80.62;100188.91;95253;1189;101939;-75
2021/10/12 06:28:15;;;;;;;35.30;23.70;;;;;;;8.72;80.64;100183.77;92897;1188;3025363;-76
2021/10/12 06:30:23;;;;;;;35.20;22.70;;;;;;;8.78;80.63;100187.35;95346;1194;82010;-77
2021/10/12 06:32:30;;;;;;;35.00;23.70;;;;;;;8.87;80.54;100185.44;95313;1185;83949;-76
2021/10/12 06:34:37;;;;;;;32.20;22.10;;;;;;;8.93;80.48;100183.84;95232;1185;115840;-76
2021/10/12 06:36:44;;;;;;;32.90;22.80;;;;;;;9.01;80.53;100183.78;95250;1190;101943;-65
2021/10/12 06:38:52;;;;;;;30.90;21.80;;;;;;;9.04;80.57;100185.84;95236;1189;110512;-64
2021/10/12 06:41:03;;;;;;;34.80;22.70;;;;;;;9.11;80.47;100186.60;95235;1185;93453;-66
2021/10/12 06:43:10;;;;;;;29.30;21.10;;;;;;;9.23;80.48;100187.27;95209;1189;93323;-76
2021/10/12 06:45:22;;;;;;;33.40;21.80;;;;;;;9.38;80.46;100188.14;95253;1188;115320;-76
2021/10/12 06:47:30;;;;;;;35.10;22.00;;;;;;;9.56;80.23;100189.38;95211;1190;102115;-64
2021/10/12 06:49:40;;;;;;;31.10;21.40;;;;;;;9.66;80.07;100194.65;95211;1185;110460;-64
2021/10/12 06:51:47;;;;;;;30.30;20.60;;;;;;;9.70;79.90;100195.19;95244;1189;92988;-65
2021/10/12 06:53:57;;;;;;;29.50;18.90;;;;;;;9.75;79.79;100198.20;95225;1182;94914;-65
2021/10/12 06:56:05;;;;;;;28.70;20.00;;;;;;;9.79;79.72;100196.35;95226;1182;115619;-75
2021/10/12 06:58:12;;;;;;;27.70;19.60;;;;;;;9.85;79.48;100194.67;95212;1185;102511;-76
2021/10/12 07:00:22;;;;;;;26.00;18.30;;;;;;;9.94;79.47;100198.10;95223;1185;111372;-75
2021/10/12 07:02:30;;;;;;;23.40;16.90;;;;;;;10.02;79.26;100196.58;95231;1185;92128;-76
2021/10/12 07:04:39;;;;;;;24.50;17.80;;;;;;;10.03;78.96;100198.41;95235;1187;95188;-76
2021/10/12 07:06:46;;;;;;;24.50;16.80;;;;;;;9.93;78.93;100198.59;95216;1189;115339;-65
2021/10/12 07:08:53;;;;;;;23.70;16.10;;;;;;;9.89;78.88;100204.27;95230;1185;102348;-65
2021/10/12 07:11:01;;;;;;;21.50;15.70;;;;;;;9.94;78.79;100200.96;95202;1187;109631;-66
2021/10/12 07:13:09;;;;;;;22.80;15.40;;;;;;;10.01;78.60;100202.29;95210;1186;92286;-75
2021/10/12 07:15:16;;;;;;;21.70;13.30;;;;;;;10.07;78.46;100203.45;95228;1182;94888;-76
2021/10/12 07:17:23;;;;;;;21.20;13.70;;;;;;;10.12;78.27;100206.33;95245;1188;115421;-75
2021/10/12 07:19:31;;;;;;;22.80;13.40;;;;;;;10.20;78.07;100209.68;95216;1185;102568;-73
2021/10/12 07:21:38;;;;;;;17.10;12.00;;;;;;;10.30;77.95;100206.41;95257;1185;111016;-64
2021/10/12 07:23:45;;;;;;;17.90;11.60;;;;;;;10.46;77.90;100205.54;95218;1194;90241;-64
2021/10/12 07:25:53;;;;;;;20.00;13.10;;;;;;;11.73;78.63;100205.23;95208;1185;93207;-64
2021/10/12 07:28:03;;;;;;;15.60;10.60;;;;;;;12.90;77.01;100196.20;95226;1188;115818;-66
2021/10/12 07:30:12;;;;;;;15.10;10.30;;;;;;;12.69;75.53;100196.05;95247;1189;101551;-65
2021/10/12 07:32:21;;;;;;;14.30;9.60;;;;;;;12.36;74.89;100194.50;95226;1188;110991;-75
2021/10/12 07:34:28;;;;;;;12.40;8.90;;;;;;;12.19;74.53;100200.30;95355;1188;90212;-75
2021/10/12 07:36:36;;;;;;;13.20;9.10;;;;;;;12.19;74.52;100198.05;95346;1185;94989;-65
2021/10/12 07:38:46;;;;;;;12.40;8.50;;;;;;;12.34;74.10;100192.63;95335;1182;114760;-65
2021/10/12 07:40:53;;;;;;;10.90;7.70;;;;;;;12.40;73.70;100193.21;95368;1185;102122;-65
2021/10/12 07:43:00;;;;;;;10.30;7.30;;;;;;;13.61;73.85;100183.33;95360;1182;110124;-65
2021/10/12 07:45:10;;;;;;;7.90;5.70;;;;;;;13.77;72.04;100184.73;95329;1185;90608;-65
2021/10/12 07:47:21;;;;;;;12.10;6.40;;;;;;;13.39;70.68;100182.56;95212;1194;94616;-77
2021/10/12 07:49:33;;;;;;;9.50;5.50;;;;;;;12.96;70.54;100186.11;95308;1186;115564;-78
2021/10/12 07:51:40;;;;;;;9.50;6.00;;;;;;;12.59;70.32;100192.65;95375;1185;101397;-78
2021/10/12 07:53:48;;;;;;;11.00;6.20;;;;;;;12.33;70.35;100196.25;95205;1185;111909;-78
2021/10/12 07:55:58;;;;;;;11.40;5.90;;;;;;;12.14;70.24;100196.16;95365;1188;91189;-77
2021/10/12 07:58:05;;;;;;;7.50;5.70;;;;;;;11.94;70.30;100198.55;95378;1181;93420;-65
2021/10/12 08:00:15;;;;;;;8.20;5.70;;;;;;;11.75;70.44;100197.58;95341;1187;115228;-65
2021/10/12 08:02:22;;;;;;;10.80;6.10;;;;;;;11.64;70.34;100196.06;95347;1185;101694;-80
2021/10/12 08:06:56;;;;;;;6.90;4.70;;;;;;;11.44;70.17;100188.73;94903;1193;91386;-63
2021/10/12 08:09:04;;;;;;;7.60;4.90;;;;;;;11.55;70.22;100189.45;95295;1185;94839;-65
2021/10/12 08:11:12;;;;;;;7.80;4.60;;;;;;;11.91;70.45;100190.99;95334;1191;115887;-78
2021/10/12 08:13:21;;;;;;;8.80;5.20;;;;;;;12.28;70.38;100186.02;95462;1182;103124;-78
2021/10/12 08:15:28;;;;;;;6.40;4.50;;;;;;;12.55;70.09;100186.52;95353;1188;111012;-80
2021/10/12 08:17:35;;;;;;;7.20;4.30;;;;;;;12.51;69.49;100180.23;95317;1185;91823;-65
2021/10/12 08:19:43;;;;;;;6.20;4.20;;;;;;;12.28;69.06;100177.61;95319;1185;94937;-65
2021/10/12 08:21:50;;;;;;;6.10;4.40;;;;;;;12.02;68.87;100185.58;95307;1185;116092;-65
2021/10/12 08:23:58;;;;;;;7.80;4.50;;;;;;;11.77;68.83;100185.83;95323;1185;102357;-65
2021/10/12 08:26:05;;;;;;;7.80;5.00;;;;;;;11.57;68.83;100181.44;95305;1195;110196;-80
2021/10/12 08:30:53;;;;;;;5.70;4.30;;;;;;;11.33;69.13;100179.02;94909;1190;94631;-63
2021/10/12 08:33:00;;;;;;;9.30;4.80;;;;;;;11.31;69.16;100177.51;95316;1190;116340;-65
2021/10/12 08:35:10;;;;;;;6.70;4.80;;;;;;;11.24;69.19;100175.96;95386;1185;102719;-81
2021/10/12 08:37:17;;;;;;;6.90;5.10;;;;;;;11.17;69.26;100172.01;95369;1185;110215;-80
2021/10/12 08:39:30;;;;;;;9.30;5.10;;;;;;;11.22;69.56;100168.55;95315;1190;91789;-80
2021/10/12 08:41:47;;;;;;;10.80;5.40;;;;;;;11.31;69.51;100171.14;95329;1187;93830;-80
2021/10/12 08:43:55;;;;;;;9.10;5.50;;;;;;;11.42;69.44;100170.66;95327;1193;115823;-78
2021/10/12 08:46:04;;;;;;;8.70;5.20;;;;;;;11.45;69.53;100167.38;95366;1185;102408;-79
2021/10/12 08:48:13;;;;;;;7.00;4.80;;;;;;;11.65;69.81;100167.16;95328;1192;110909;-78
2021/10/12 08:50:24;;;;;;;9.00;5.20;;;;;;;12.24;69.49;100171.39;95320;1187;92828;-63
2021/10/12 08:52:31;;;;;;;8.80;6.10;;;;;;;12.39;68.98;100170.13;95348;1183;93501;-63
2021/10/12 08:54:39;;;;;;;10.40;5.20;;;;;;;12.82;69.24;100161.77;95315;1185;115745;-78
2021/10/12 08:56:46;;;;;;;9.10;5.50;;;;;;;13.50;69.11;100167.63;95380;1185;102494;-78
2021/10/12 08:58:54;;;;;;;9.50;5.30;;;;;;;14.03;68.09;100162.63;95342;1187;110359;-80
2021/10/12 09:01:09;;;;;;;7.80;5.70;;;;;;;14.16;67.21;100160.21;95324;1182;92121;-77
2021/10/12 09:03:17;;;;;;;8.80;4.60;;;;;;;14.50;66.74;100163.36;95305;1185;94151;-78
2021/10/12 09:05:27;;;;;;;9.10;4.20;;;;;;;14.45;66.28;100160.55;95325;1187;115062;-64
2021/10/12 09:07:39;;;;;;;5.90;4.10;;;;;;;14.44;65.72;100157.68;95298;1182;101908;-63
2021/10/12 09:09:47;;;;;;;7.90;4.40;;;;;;;14.49;65.54;100163.32;95293;1188;111015;-76
2021/10/12 09:11:55;;;;;;;6.40;3.90;;;;;;;14.28;64.94;100160.52;95318;1187;91617;-77
2021/10/12 09:14:05;;;;;;;9.00;3.80;;;;;;;13.97;64.74;100164.67;95336;1182;94055;-78
2021/10/12 09:16:44;;;;;;;6.00;3.60;;;;;;;13.83;64.79;100160.59;95313;1188;115231;-63
2021/10/12 09:18:57;;;;;;;6.70;3.30;;;;;;;13.68;64.35;100159.45;95328;1185;103105;-63
2021/10/12 09:21:16;;;;;;;5.40;2.90;;;;;;;13.51;64.06;100154.84;95292;1191;111307;-63
2021/10/12 09:23:28;;;;;;;5.30;2.90;;;;;;;13.26;63.84;100148.41;94827;1194;90085;-63
2021/10/12 09:25:38;;;;;;;4.50;2.70;;;;;;;13.12;63.74;100145.69;95337;1184;94615;-65
2021/10/12 09:27:55;;;;;;;5.20;2.80;;;;;;;13.02;63.87;100147.64;95301;1188;116080;-63
2021/10/12 09:30:10;;;;;;;5.70;2.90;;;;;;;12.96;64.22;100140.59;95265;1185;102541;-63
2021/10/12 09:32:22;;;;;;;6.80;3.30;;;;;;;13.12;64.27;100143.73;95321;1191;110668;-63
2021/10/12 09:34:31;;;;;;;4.50;2.40;;;;;;;13.21;64.18;100140.30;95321;1185;91565;-63
2021/10/12 09:36:44;;;;;;;6.50;2.90;;;;;;;13.29;63.68;100138.48;95333;1182;93566;-63
2021/10/12 09:38:51;;;;;;;5.40;2.30;;;;;;;13.44;63.80;100138.59;95304;1188;116042;-64
2021/10/12 09:41:09;;;;;;;5.00;2.30;;;;;;;13.63;63.56;100138.30;95331;1190;102415;-75
2021/10/12 09:43:21;;;;;;;4.50;2.60;;;;;;;13.80;63.23;100135.52;95256;1190;110358;-74
2021/10/12 09:45:42;;;;;;;3.60;2.20;;;;;;;14.47;63.67;100131.34;95230;1194;91706;-65
2021/10/12 09:47:49;;;;;;;5.40;2.60;;;;;;;15.18;62.55;100124.33;95271;1190;94002;-63
2021/10/12 09:50:11;;;;;;;5.00;2.00;;;;;;;15.65;62.21;100121.63;95279;1187;115214;-64
2021/10/12 09:52:20;;;;;;;4.50;2.00;;;;;;;15.70;60.69;100120.14;95280;1187;102673;-64
2021/10/12 09:54:30;;;;;;;4.00;1.90;;;;;;;15.59;60.37;100119.08;95222;1191;110935;-64